Time;durP1;ratioP1;P1;durP2;ratioP2;P2;SDS_P1;SDS_P2;PMS_P1;PMS_P2;Temp;Humidity;BMP_temperature;BMP_pressure;BME280_temperature;BME280_humidity;BME280_pressure;Samples;Min_cycle;Max_cycle;Signal;HPM_P1;HPM_P2
2023/10/07 00:02:50;;;;;;;0.32;0.32;;;17.90;88.00;;;;;;4990987;28;20046;-69
2023/10/07 00:05:17;;;;;;;0.00;0.00;;;17.90;87.90;;;;;;4990793;28;20052;-70
2023/10/07 00:07:45;;;;;;;0.00;0.00;;;17.90;87.90;;;;;;4991495;28;20050;-70
2023/10/07 00:10:15;;;;;;;0.10;0.10;;;17.90;87.80;;;;;;4990556;28;20046;-70
2023/10/07 00:12:42;;;;;;;0.00;0.00;;;18.00;87.70;;;;;;4991155;28;20074;-71
2023/10/07 00:15:11;;;;;;;0.35;0.35;;;18.00;87.70;;;;;;4990392;28;20058;-70
2023/10/07 00:17:42;;;;;;;0.00;0.00;;;18.00;87.70;;;;;;4990161;28;20583;-71
2023/10/07 00:20:12;;;;;;;0.10;0.10;;;18.00;87.70;;;;;;4990353;28;20058;-70
2023/10/07 00:22:42;;;;;;;4.88;1.90;;;17.90;87.70;;;;;;4990892;28;20164;-69
2023/10/07 00:25:08;;;;;;;0.00;0.00;;;18.00;87.90;;;;;;4990415;28;20043;-69
2023/10/07 00:27:38;;;;;;;0.20;0.20;;;18.00;87.90;;;;;;4990412;28;20506;-70
2023/10/07 00:30:16;;;;;;;0.10;0.10;;;18.00;88.10;;;;;;4990509;28;20100;-71
2023/10/07 00:32:48;;;;;;;0.00;0.00;;;18.00;88.10;;;;;;4991136;28;20104;-70
2023/10/07 00:35:16;;;;;;;0.05;0.05;;;18.00;88.00;;;;;;4985699;28;20092;-70
2023/10/07 00:37:44;;;;;;;0.00;0.00;;;18.00;88.10;;;;;;5004970;28;20058;-70
2023/10/07 00:40:30;;;;;;;0.10;0.10;;;18.00;88.10;;;;;;4989901;28;20453;-71
2023/10/07 00:42:57;;;;;;;0.40;0.40;;;18.10;87.90;;;;;;4990587;28;20062;-70
2023/10/07 00:45:24;;;;;;;0.00;0.00;;;18.10;87.60;;;;;;4990179;28;20097;-70
2023/10/07 00:47:52;;;;;;;0.55;0.50;;;18.10;87.60;;;;;;4989131;28;20444;-70
2023/10/07 00:50:20;;;;;;;0.00;0.00;;;18.10;87.50;;;;;;4990071;28;20546;-70
2023/10/07 00:55:29;;;;;;;0.05;0.05;;;18.10;87.50;;;;;;4989643;28;20058;-70
2023/10/07 00:58:13;;;;;;;0.00;0.00;;;18.10;87.60;;;;;;4989565;28;20042;-70
2023/10/07 01:05:44;;;;;;;0.70;0.43;;;18.10;87.70;;;;;;4987841;28;20474;-69
2023/10/07 01:08:12;;;;;;;;;;;18.10;87.70;;;;;;4990718;28;20053;-69
2023/10/07 01:10:39;;;;;;;0.00;0.00;;;18.00;88.00;;;;;;4988172;28;19928;-69
2023/10/07 01:13:24;;;;;;;0.70;0.45;;;18.10;87.90;;;;;;4988570;28;20054;-70
2023/10/07 01:15:50;;;;;;;0.00;0.00;;;18.10;87.90;;;;;;4989420;28;20077;-69
2023/10/07 01:18:19;;;;;;;0.00;0.00;;;18.10;87.90;;;;;;4990122;28;20050;-71
2023/10/07 01:21:03;;;;;;;0.10;0.10;;;18.10;88.00;;;;;;4989589;28;20128;-70
2023/10/07 01:23:34;;;;;;;0.63;0.13;;;18.10;87.90;;;;;;4989932;28;20828;-70
2023/10/07 01:26:03;;;;;;;0.08;0.08;;;18.10;88.00;;;;;;4989512;28;21105;-70
2023/10/07 01:28:32;;;;;;;0.05;0.05;;;18.00;88.00;;;;;;4985250;28;20045;-69
2023/10/07 01:31:07;;;;;;;0.00;0.00;;;18.00;88.10;;;;;;4990007;28;20050;-69
2023/10/07 01:33:38;;;;;;;0.00;0.00;;;18.00;87.90;;;;;;4989524;28;20042;-70
2023/10/07 01:36:16;;;;;;;0.22;0.22;;;18.10;88.00;;;;;;4989918;28;20046;-69
2023/10/07 01:38:50;;;;;;;0.00;0.00;;;18.00;88.30;;;;;;4989726;28;20445;-70
2023/10/07 01:41:18;;;;;;;0.32;0.15;;;18.00;88.40;;;;;;4988405;28;20049;-70
2023/10/07 01:46:28;;;;;;;0.00;0.00;;;17.90;88.40;;;;;;4988386;28;20065;-69
2023/10/07 01:48:58;;;;;;;0.00;0.00;;;17.90;88.60;;;;;;4988886;28;20035;-70
2023/10/07 01:51:27;;;;;;;0.15;0.15;;;17.90;88.60;;;;;;4988291;28;20053;-69
2023/10/07 01:54:04;;;;;;;0.47;0.45;;;17.90;88.70;;;;;;4988556;28;20039;-70
2023/10/07 01:56:32;;;;;;;0.40;0.40;;;17.90;88.60;;;;;;4988824;28;20632;-71
2023/10/07 01:59:17;;;;;;;0.00;0.00;;;18.00;88.50;;;;;;4988838;28;20640;-70
2023/10/07 02:01:51;;;;;;;0.10;0.10;;;18.00;88.50;;;;;;4987685;28;20054;-70
2023/10/07 02:04:18;;;;;;;0.25;0.25;;;17.90;88.60;;;;;;4989397;28;20038;-70
2023/10/07 02:06:51;;;;;;;1.85;1.38;;;17.90;88.70;;;;;;4988130;28;20046;-69
2023/10/07 02:09:24;;;;;;;0.28;0.28;;;17.90;88.80;;;;;;4989271;28;20038;-69
2023/10/07 02:12:11;;;;;;;2.72;0.98;;;17.90;88.70;;;;;;4988094;28;20495;-70
2023/10/07 02:14:37;;;;;;;0.40;0.40;;;17.90;88.80;;;;;;4987958;28;20034;-70
2023/10/07 02:17:03;;;;;;;0.00;0.00;;;17.90;88.80;;;;;;4986955;28;20049;-70
2023/10/07 02:19:31;;;;;;;0.00;0.00;;;17.90;88.90;;;;;;4986855;28;20047;-69
2023/10/07 02:22:03;;;;;;;0.00;0.00;;;17.90;89.00;;;;;;4983128;28;20066;-69
2023/10/07 02:24:34;;;;;;;0.00;0.00;;;17.90;88.90;;;;;;4988377;28;20042;-71
2023/10/07 02:27:17;;;;;;;3.85;2.63;;;17.90;88.90;;;;;;4988131;28;20050;-70
2023/10/07 02:29:44;;;;;;;0.00;0.00;;;17.90;88.90;;;;;;4987741;28;20457;-70
2023/10/07 02:32:14;;;;;;;0.00;0.00;;;17.90;88.90;;;;;;4986414;28;20419;-70
2023/10/07 02:34:51;;;;;;;0.00;0.00;;;17.80;89.10;;;;;;4988563;28;20046;-70
2023/10/07 02:37:30;;;;;;;0.22;0.22;;;17.80;89.20;;;;;;4987845;28;20105;-69
2023/10/07 02:40:02;;;;;;;0.00;0.00;;;17.80;89.30;;;;;;4989263;28;20038;-70
2023/10/07 02:42:28;;;;;;;0.00;0.00;;;17.80;89.20;;;;;;4989220;28;20526;-70
2023/10/07 02:45:01;;;;;;;0.00;0.00;;;17.80;89.30;;;;;;4987975;28;20062;-70
2023/10/07 02:47:32;;;;;;;0.00;0.00;;;17.90;89.20;;;;;;4989028;28;20042;-71
2023/10/07 02:50:01;;;;;;;0.00;0.00;;;17.80;89.20;;;;;;4996627;28;20133;-70
2023/10/07 02:52:34;;;;;;;0.17;0.17;;;17.90;89.30;;;;;;4988551;28;20841;-69
2023/10/07 02:57:55;;;;;;;0.00;0.00;;;17.90;89.30;;;;;;4988613;28;20114;-69
2023/10/07 03:00:35;;;;;;;0.68;0.68;;;17.90;89.50;;;;;;4987982;28;20450;-70
2023/10/07 03:05:45;;;;;;;0.00;0.00;;;17.90;89.60;;;;;;4988831;28;20062;-70
2023/10/07 03:08:21;;;;;;;0.05;0.05;;;17.90;89.50;;;;;;4989184;28;20054;-69
2023/10/07 03:11:03;;;;;;;0.17;0.17;;;17.80;89.50;;;;;;4995721;28;20403;-69
2023/10/07 03:13:29;;;;;;;0.00;0.00;;;17.80;89.60;;;;;;4983432;28;20046;-69
2023/10/07 03:16:27;;;;;;;0.00;0.00;;;17.80;89.70;;;;;;4987936;28;20042;-69
2023/10/07 03:19:04;;;;;;;0.00;0.00;;;17.80;89.60;;;;;;4986825;28;20051;-70
2023/10/07 03:24:13;;;;;;;0.00;0.00;;;17.80;89.80;;;;;;4987745;28;20100;-69
2023/10/07 03:26:41;;;;;;;0.20;0.20;;;17.80;89.90;;;;;;4989009;28;20076;-69
2023/10/07 03:29:19;;;;;;;19.88;1.17;;;17.80;89.80;;;;;;4987736;28;20507;-69
2023/10/07 03:34:12;;;;;;;0.00;0.00;;;17.80;89.80;;;;;;4986290;28;20053;-70
2023/10/07 03:36:41;;;;;;;0.20;0.20;;;17.80;89.90;;;;;;4988557;28;20057;-68
2023/10/07 03:41:55;;;;;;;0.00;0.00;;;17.80;89.80;;;;;;5002807;28;20516;-70
2023/10/07 03:44:23;;;;;;;0.52;0.52;;;17.90;89.60;;;;;;4987538;28;20475;-69
2023/10/07 03:46:54;;;;;;;0.00;0.00;;;17.80;89.70;;;;;;4988798;28;20040;-68
2023/10/07 03:49:23;;;;;;;0.35;0.35;;;17.80;89.80;;;;;;4987381;28;20049;-69
2023/10/07 03:52:03;;;;;;;0.60;0.60;;;17.80;89.60;;;;;;4988464;28;20042;-69
2023/10/07 03:54:33;;;;;;;0.00;0.00;;;17.90;89.50;;;;;;4987006;28;20061;-69
2023/10/07 03:57:02;;;;;;;0.00;0.00;;;17.80;89.70;;;;;;4988284;28;20118;-70
2023/10/07 03:59:37;;;;;;;0.00;0.00;;;17.80;89.70;;;;;;4987172;28;20081;-69
2023/10/07 04:02:31;;;;;;;0.00;0.00;;;17.80;89.70;;;;;;4988195;28;20034;-69
2023/10/07 04:05:00;;;;;;;0.20;0.20;;;17.90;89.70;;;;;;4987389;28;20035;-69
2023/10/07 04:07:27;;;;;;;0.20;0.20;;;17.80;89.70;;;;;;4983767;28;20042;-72
2023/10/07 04:09:53;;;;;;;0.57;0.57;;;17.80;89.70;;;;;;4988075;28;20046;-69
2023/10/07 04:12:19;;;;;;;0.00;0.00;;;17.80;89.70;;;;;;4985833;28;20050;-69
2023/10/07 04:14:44;;;;;;;0.20;0.20;;;17.80;89.70;;;;;;4986602;28;20057;-70
2023/10/07 04:17:13;;;;;;;0.13;0.13;;;17.80;89.80;;;;;;4987694;28;20057;-70
2023/10/07 04:19:40;;;;;;;0.00;0.00;;;17.80;89.80;;;;;;4985073;28;20148;-70
2023/10/07 04:22:08;;;;;;;0.38;0.32;;;17.80;89.80;;;;;;4986055;28;20046;-69
2023/10/07 04:24:35;;;;;;;0.10;0.10;;;17.70;90.00;;;;;;4986726;28;20050;-70
2023/10/07 04:27:03;;;;;;;0.00;0.00;;;17.80;90.00;;;;;;4986347;28;20058;-71
2023/10/07 04:29:32;;;;;;;0.08;0.08;;;17.70;89.90;;;;;;4986226;28;20082;-69
2023/10/07 04:32:13;;;;;;;0.00;0.00;;;17.70;89.90;;;;;;4985166;28;20507;-70
2023/10/07 04:34:51;;;;;;;0.00;0.00;;;17.80;90.00;;;;;;4988374;28;20506;-70
2023/10/07 04:37:18;;;;;;;0.17;0.17;;;17.70;90.00;;;;;;4990088;28;20463;-69
2023/10/07 04:42:22;;;;;;;0.00;0.00;;;17.70;90.10;;;;;;4988996;28;20109;-69
2023/10/07 04:47:29;;;;;;;0.00;0.00;;;17.70;90.20;;;;;;4990070;28;20050;-70
2023/10/07 04:52:30;;;;;;;0.50;0.50;;;17.60;90.20;;;;;;4988823;28;20505;-69
2023/10/07 04:55:00;;;;;;;0.00;0.00;;;17.60;90.20;;;;;;4987162;28;20045;-70
2023/10/07 05:00:27;;;;;;;0.08;0.08;;;17.60;90.30;;;;;;4982557;28;20503;-71
2023/10/07 05:02:59;;;;;;;0.00;0.00;;;17.60;90.20;;;;;;4987450;28;20495;-70
2023/10/07 05:05:33;;;;;;;0.15;0.15;;;17.60;90.40;;;;;;4986464;28;20506;-70
2023/10/07 05:08:19;;;;;;;1.10;1.02;;;17.50;90.40;;;;;;4987891;28;20054;-70
2023/10/07 05:11:04;;;;;;;0.10;0.10;;;17.50;90.50;;;;;;4988229;28;20042;-71
2023/10/07 05:13:32;;;;;;;3.05;0.17;;;17.50;90.60;;;;;;4987618;28;20054;-71
2023/10/07 05:15:58;;;;;;;0.20;0.20;;;17.50;90.70;;;;;;4986440;28;20047;-70
2023/10/07 05:21:04;;;;;;;0.00;0.00;;;17.40;90.70;;;;;;5068343;27;20786;-70
2023/10/07 05:23:30;;;;;;;0.00;0.00;;;17.40;90.70;;;;;;5063463;28;20064;-70
2023/10/07 05:25:56;;;;;;;0.00;0.00;;;17.40;90.70;;;;;;5062252;28;20527;-71
2023/10/07 05:28:21;;;;;;;0.10;0.10;;;17.40;90.70;;;;;;5063318;28;20164;-70
2023/10/07 05:30:53;;;;;;;0.00;0.00;;;17.40;90.60;;;;;;5063198;28;20131;-71
2023/10/07 05:33:27;;;;;;;0.00;0.00;;;17.50;90.70;;;;;;5063771;28;20139;-71
2023/10/07 05:36:13;;;;;;;0.00;0.00;;;17.40;90.80;;;;;;5063681;28;21900;-72
2023/10/07 05:38:47;;;;;;;0.20;0.20;;;17.50;90.80;;;;;;5063833;28;20504;-71
2023/10/07 05:41:15;;;;;;;0.00;0.00;;;17.40;90.80;;;;;;5063135;28;20045;-71
2023/10/07 05:43:43;;;;;;;0.00;0.00;;;17.50;90.60;;;;;;5062533;28;20048;-70
2023/10/07 05:46:10;;;;;;;0.00;0.00;;;17.50;90.50;;;;;;5061408;28;20052;-71
2023/10/07 05:48:38;;;;;;;0.77;0.73;;;17.50;90.60;;;;;;5064203;28;20413;-72
2023/10/07 05:51:07;;;;;;;0.00;0.00;;;17.50;90.60;;;;;;5064580;28;20120;-71
2023/10/07 05:53:36;;;;;;;0.10;0.10;;;17.50;90.60;;;;;;5058434;28;20135;-72
2023/10/07 05:56:05;;;;;;;0.80;0.52;;;17.50;90.70;;;;;;5063330;28;20059;-71
2023/10/07 05:58:32;;;;;;;0.00;0.00;;;17.50;90.50;;;;;;5061953;28;20064;-71
2023/10/07 06:00:58;;;;;;;0.08;0.08;;;17.50;90.60;;;;;;5062525;28;20498;-71
2023/10/07 06:03:25;;;;;;;0.00;0.00;;;17.50;90.60;;;;;;5062435;28;20060;-71
2023/10/07 06:05:51;;;;;;;0.00;0.00;;;17.50;90.50;;;;;;5061749;28;20052;-72
2023/10/07 06:08:16;;;;;;;0.08;0.08;;;17.50;90.50;;;;;;5061521;28;20067;-73
2023/10/07 06:10:51;;;;;;;0.50;0.43;;;17.50;90.40;;;;;;5061808;28;20136;-73
2023/10/07 06:13:18;;;;;;;0.00;0.00;;;17.50;90.30;;;;;;5061540;28;20084;-71
2023/10/07 06:15:45;;;;;;;0.00;0.00;;;17.50;90.30;;;;;;5061850;28;20052;-70
2023/10/07 06:18:11;;;;;;;0.00;0.00;;;17.50;90.40;;;;;;5062756;28;20049;-70
2023/10/07 06:21:11;;;;;;;0.00;0.00;;;17.50;90.50;;;;;;5061031;28;20424;-70
2023/10/07 06:23:25;;;;;;;0.30;0.30;;;17.50;90.50;;;;;;5051589;22;20525;-71
2023/10/07 06:25:52;;;;;;;0.00;0.00;;;17.50;90.50;;;;;;5023842;28;20076;-70
2023/10/07 06:34:03;;;;;;;0.25;0.25;;;17.50;90.50;;;;;;5027495;28;20053;-70
2023/10/07 06:36:31;;;;;;;0.75;0.75;;;17.40;90.60;;;;;;5028172;28;20057;-70
2023/10/07 06:38:58;;;;;;;0.00;0.00;;;17.50;90.40;;;;;;5028394;28;20049;-70
2023/10/07 06:41:29;;;;;;;6.35;0.52;;;17.40;90.60;;;;;;5024998;28;20052;-71
2023/10/07 06:43:59;;;;;;;0.00;0.00;;;17.40;90.60;;;;;;5025303;28;20042;-72
2023/10/07 06:46:29;;;;;;;0.00;0.00;;;17.50;90.60;;;;;;5021879;28;20179;-71
2023/10/07 06:48:57;;;;;;;0.10;0.10;;;17.50;90.70;;;;;;5025065;28;20048;-71
2023/10/07 06:51:23;;;;;;;0.00;0.00;;;17.40;90.60;;;;;;5025766;28;20060;-70
2023/10/07 06:53:49;;;;;;;0.00;0.00;;;17.50;90.60;;;;;;5026352;28;20476;-70
2023/10/07 06:56:22;;;;;;;0.40;0.40;;;17.50;90.60;;;;;;5058252;28;20112;-70
2023/10/07 06:58:53;;;;;;;0.10;0.10;;;17.50;90.50;;;;;;5025341;28;20042;-69
2023/10/07 07:04:17;;;;;;;0.00;0.00;;;17.50;90.50;;;;;;5027432;28;20053;-69
2023/10/07 07:06:44;;;;;;;0.05;0.05;;;17.50;90.30;;;;;;5029529;28;20080;-69
2023/10/07 07:09:58;;;;;;;0.00;0.00;;;17.60;90.30;;;;;;5026762;28;20080;-69
2023/10/07 07:12:03;;;;;;;0.00;0.00;;;17.60;90.10;;;;;;5013703;28;20576;-69
2023/10/07 07:14:30;;;;;;;0.00;0.00;;;17.60;90.00;;;;;;5023269;28;20041;-70
2023/10/07 07:16:56;;;;;;;0.10;0.10;;;17.60;90.00;;;;;;5022890;28;20524;-73
2023/10/07 07:19:24;;;;;;;0.08;0.08;;;17.60;89.90;;;;;;5025502;28;20407;-70
2023/10/07 07:21:50;;;;;;;0.00;0.00;;;17.60;89.90;;;;;;5024611;28;20411;-68
2023/10/07 07:24:23;;;;;;;0.00;0.00;;;17.70;89.80;;;;;;5025557;28;20041;-70
2023/10/07 07:26:52;;;;;;;0.77;0.77;;;17.80;89.50;;;;;;5023290;28;20757;-70
2023/10/07 07:29:23;;;;;;;0.00;0.00;;;17.80;89.40;;;;;;5024677;28;20116;-69
2023/10/07 07:31:50;;;;;;;0.10;0.10;;;17.80;89.40;;;;;;5025348;28;20058;-64
2023/10/07 07:34:21;;;;;;;1.10;1.05;;;17.80;89.10;;;;;;5020957;28;20037;-65
2023/10/07 07:36:56;;;;;;;0.43;0.40;;;17.80;89.20;;;;;;5023967;28;20065;-66
2023/10/07 07:39:22;;;;;;;0.00;0.00;;;17.90;89.10;;;;;;5018871;28;20045;-67
2023/10/07 07:41:57;;;;;;;0.00;0.00;;;17.90;89.00;;;;;;5025671;28;20049;-68
2023/10/07 07:44:33;;;;;;;0.30;0.30;;;17.90;88.80;;;;;;5025210;28;20049;-67
2023/10/07 07:47:02;;;;;;;1.13;1.10;;;17.90;88.80;;;;;;5027492;28;20098;-68
2023/10/07 07:49:32;;;;;;;0.22;0.22;;;17.90;88.90;;;;;;5011289;28;20053;-68
2023/10/07 07:52:02;;;;;;;0.10;0.10;;;18.00;88.80;;;;;;5027056;28;20124;-68
2023/10/07 07:54:29;;;;;;;0.00;0.00;;;18.00;88.60;;;;;;5027241;28;20064;-67
2023/10/07 07:56:55;;;;;;;0.00;0.00;;;18.10;88.70;;;;;;5025398;28;20110;-68
2023/10/07 07:59:21;;;;;;;1.30;0.98;;;18.00;88.50;;;;;;5028299;28;20041;-68
2023/10/07 08:01:53;;;;;;;3.00;1.27;;;18.00;88.30;;;;;;5028471;28;20056;-68
2023/10/07 08:04:37;;;;;;;0.85;0.85;;;18.10;88.00;;;;;;5027835;28;20049;-68
2023/10/07 08:07:06;;;;;;;0.00;0.00;;;18.00;87.90;;;;;;5028521;28;20044;-68
2023/10/07 08:09:36;;;;;;;0.45;0.45;;;18.10;87.90;;;;;;5027149;28;20037;-67
2023/10/07 08:12:09;;;;;;;0.10;0.10;;;18.00;88.00;;;;;;5027324;28;20052;-68
2023/10/07 08:14:38;;;;;;;0.80;0.80;;;18.00;88.00;;;;;;5026943;28;20111;-68
2023/10/07 08:17:08;;;;;;;1.30;1.20;;;18.00;88.10;;;;;;5026498;28;20052;-68
2023/10/07 08:19:35;;;;;;;0.10;0.10;;;18.00;88.00;;;;;;5009346;28;20033;-68
2023/10/07 08:22:03;;;;;;;0.00;0.00;;;18.10;87.80;;;;;;5026602;28;20081;-69
2023/10/07 08:24:30;;;;;;;0.43;0.43;;;18.10;87.80;;;;;;5025989;28;20394;-68
2023/10/07 08:27:03;;;;;;;0.00;0.00;;;18.10;87.80;;;;;;5027168;28;20080;-68
2023/10/07 08:29:32;;;;;;;0.03;0.03;;;18.00;87.70;;;;;;5026968;28;20453;-68
2023/10/07 08:32:10;;;;;;;0.00;0.00;;;18.10;87.50;;;;;;5023330;28;20045;-68
2023/10/07 08:34:37;;;;;;;0.10;0.10;;;18.10;87.60;;;;;;5026791;28;20057;-68
2023/10/07 08:37:08;;;;;;;0.25;0.25;;;18.10;87.70;;;;;;5025411;28;20056;-68
2023/10/07 08:39:44;;;;;;;0.25;0.15;;;18.10;87.50;;;;;;5026362;28;20399;-68
2023/10/07 08:42:17;;;;;;;0.38;0.38;;;18.20;87.30;;;;;;5027587;28;20512;-68
2023/10/07 08:44:51;;;;;;;0.00;0.00;;;18.20;87.10;;;;;;5027505;28;20128;-68
2023/10/07 08:47:20;;;;;;;0.10;0.10;;;18.20;86.80;;;;;;5027432;28;20034;-68
2023/10/07 08:49:48;;;;;;;0.03;0.03;;;18.20;86.70;;;;;;5026353;28;20426;-68
2023/10/07 08:52:16;;;;;;;0.00;0.00;;;18.30;86.50;;;;;;5027355;28;20041;-68
2023/10/07 08:54:44;;;;;;;0.80;0.80;;;18.30;86.10;;;;;;5026876;28;20045;-67
2023/10/07 08:57:22;;;;;;;0.63;0.63;;;18.50;85.70;;;;;;5027248;28;20041;-68
2023/10/07 08:59:52;;;;;;;0.17;0.17;;;18.50;85.20;;;;;;5027222;28;20084;-68
2023/10/07 09:02:26;;;;;;;0.10;0.10;;;18.50;84.80;;;;;;5027166;28;20085;-69
2023/10/07 09:04:54;;;;;;;0.05;0.05;;;18.50;85.00;;;;;;5027566;28;20045;-68
2023/10/07 09:07:20;;;;;;;0.00;0.00;;;18.60;84.30;;;;;;5027432;28;20144;-68
2023/10/07 09:09:47;;;;;;;1.10;1.00;;;18.50;84.50;;;;;;5025949;28;20493;-68
2023/10/07 09:12:14;;;;;;;6.55;2.17;;;18.60;84.70;;;;;;5027140;28;20398;-69
2023/10/07 09:14:47;;;;;;;0.70;0.70;;;18.50;84.50;;;;;;5027377;28;20046;-68
2023/10/07 09:17:13;;;;;;;1.45;1.35;;;18.50;84.60;;;;;;5026690;28;20033;-68
2023/10/07 09:19:43;;;;;;;0.00;0.00;;;18.60;84.00;;;;;;5023798;28;20056;-71
2023/10/07 09:22:14;;;;;;;4.13;2.10;;;18.60;83.40;;;;;;5026172;28;20068;-68
2023/10/07 09:24:44;;;;;;;6.00;3.55;;;18.60;83.40;;;;;;5018151;28;20079;-68
2023/10/07 09:27:13;;;;;;;0.10;0.10;;;18.50;83.70;;;;;;5023625;28;20426;-69
2023/10/07 09:29:41;;;;;;;0.00;0.00;;;18.50;84.10;;;;;;5023562;28;20084;-72
2023/10/07 09:32:21;;;;;;;0.40;0.40;;;18.50;84.20;;;;;;5023015;28;20149;-72
2023/10/07 09:34:47;;;;;;;0.05;0.05;;;18.60;83.80;;;;;;5024680;28;20053;-70
2023/10/07 09:37:18;;;;;;;1.10;0.90;;;18.60;83.80;;;;;;5023129;28;20057;-69
2023/10/07 09:39:44;;;;;;;2.55;1.45;;;18.60;83.30;;;;;;5020705;28;20049;-70
2023/10/07 09:42:26;;;;;;;0.10;0.10;;;18.70;82.70;;;;;;5021758;28;20153;-69
2023/10/07 09:45:10;;;;;;;0.00;0.00;;;18.70;82.20;;;;;;5022993;28;20033;-70
2023/10/07 09:47:39;;;;;;;0.10;0.10;;;18.60;81.90;;;;;;5023529;28;20049;-68
2023/10/07 09:50:19;;;;;;;1.90;1.77;;;18.60;81.70;;;;;;5023013;28;20076;-69
2023/10/07 09:53:15;;;;;;;0.10;0.10;;;18.60;81.70;;;;;;5024431;28;20417;-70
2023/10/07 09:55:56;;;;;;;0.05;0.05;;;18.60;81.90;;;;;;5018561;28;20061;-69
2023/10/07 09:58:47;;;;;;;0.15;0.15;;;18.50;82.00;;;;;;5023899;28;20053;-68
2023/10/07 10:01:38;;;;;;;0.00;0.00;;;18.50;82.30;;;;;;5024365;28;20062;-69
2023/10/07 10:04:27;;;;;;;0.00;0.00;;;18.50;82.20;;;;;;5024024;28;20565;-70
2023/10/07 10:07:14;;;;;;;0.10;0.10;;;18.50;82.10;;;;;;5026293;28;20057;-69
2023/10/07 10:10:14;;;;;;;0.10;0.10;;;18.50;82.40;;;;;;5028276;28;20037;-69
2023/10/07 10:18:05;;;;;;;0.20;0.20;;;18.50;82.30;;;;;;5023136;28;20069;-69
2023/10/07 10:20:44;;;;;;;0.00;0.00;;;18.50;81.80;;;;;;5026302;28;20053;-69
2023/10/07 10:23:20;;;;;;;0.00;0.00;;;18.60;82.00;;;;;;5026891;28;20053;-70
2023/10/07 10:25:51;;;;;;;2.25;1.30;;;18.60;81.00;;;;;;5025946;28;20508;-68
2023/10/07 10:28:27;;;;;;;0.20;0.20;;;18.60;81.50;;;;;;5027604;28;20042;-69
2023/10/07 10:30:54;;;;;;;0.00;0.00;;;18.60;80.90;;;;;;5024945;28;20060;-70
2023/10/07 10:33:20;;;;;;;0.05;0.05;;;18.70;80.90;;;;;;5026818;28;20164;-69
2023/10/07 10:36:00;;;;;;;0.00;0.00;;;18.70;80.80;;;;;;5026325;28;20037;-70
2023/10/07 10:38:37;;;;;;;0.38;0.32;;;18.70;80.80;;;;;;5026880;28;20045;-68
2023/10/07 10:41:04;;;;;;;0.03;0.03;;;18.70;81.30;;;;;;5026010;28;20806;-68
2023/10/07 10:43:31;;;;;;;0.00;0.00;;;18.80;81.20;;;;;;5026530;28;20053;-68
2023/10/07 10:46:02;;;;;;;0.00;0.00;;;18.80;80.90;;;;;;5026021;28;20045;-67
2023/10/07 10:48:30;;;;;;;0.00;0.00;;;18.80;80.80;;;;;;5025338;28;20042;-67
2023/10/07 10:50:59;;;;;;;0.00;0.00;;;18.80;80.60;;;;;;5025705;28;20462;-69
2023/10/07 10:53:25;;;;;;;0.00;0.00;;;18.90;81.20;;;;;;5024750;28;20049;-69
2023/10/07 10:55:54;;;;;;;1.05;1.00;;;18.90;81.00;;;;;;5024630;28;20052;-71
2023/10/07 10:58:19;;;;;;;0.00;0.00;;;18.80;80.70;;;;;;5022184;28;20057;-70
2023/10/07 11:00:49;;;;;;;1.65;1.05;;;18.80;81.20;;;;;;5024710;28;20606;-70
2023/10/07 11:03:20;;;;;;;0.00;0.00;;;18.80;81.10;;;;;;5025269;28;20055;-70
2023/10/07 11:05:47;;;;;;;0.65;0.65;;;18.80;80.80;;;;;;5022505;28;20061;-70
2023/10/07 11:08:12;;;;;;;24.45;1.45;;;18.80;80.60;;;;;;5006972;28;20490;-70
2023/10/07 11:10:39;;;;;;;0.00;0.00;;;18.80;81.00;;;;;;5020384;28;20170;-69
2023/10/07 11:13:08;;;;;;;0.05;0.05;;;18.70;81.30;;;;;;5026462;28;20391;-70
2023/10/07 11:15:35;;;;;;;0.30;0.30;;;18.80;80.70;;;;;;5025535;28;20041;-70
2023/10/07 11:18:14;;;;;;;0.15;0.15;;;18.80;80.90;;;;;;5023087;28;20115;-70
2023/10/07 11:20:45;;;;;;;0.00;0.00;;;18.80;80.70;;;;;;5024171;28;20050;-72
2023/10/07 11:23:15;;;;;;;1.95;1.40;;;18.90;80.80;;;;;;5022245;28;20103;-71
2023/10/07 11:25:42;;;;;;;0.00;0.00;;;18.90;80.80;;;;;;5025967;28;20128;-72
2023/10/07 11:28:09;;;;;;;0.40;0.40;;;18.90;81.20;;;;;;5024454;28;20456;-71
2023/10/07 11:30:47;;;;;;;0.00;0.00;;;18.90;81.40;;;;;;5024081;28;20410;-71
2023/10/07 11:33:17;;;;;;;0.40;0.38;;;18.90;80.80;;;;;;5025998;28;20087;-71
2023/10/07 11:35:45;;;;;;;0.00;0.00;;;19.00;80.80;;;;;;5025200;28;20418;-71
2023/10/07 11:38:13;;;;;;;1.75;1.65;;;18.90;81.00;;;;;;5023450;28;20056;-71
2023/10/07 11:40:39;;;;;;;0.22;0.22;;;19.00;81.00;;;;;;5023897;28;20061;-69
2023/10/07 11:43:08;;;;;;;0.00;0.00;;;19.00;80.70;;;;;;5024755;28;20053;-70
2023/10/07 11:45:35;;;;;;;0.00;0.00;;;19.00;80.80;;;;;;5025120;28;20045;-69
2023/10/07 11:48:05;;;;;;;0.40;0.40;;;19.00;80.50;;;;;;5025022;28;20038;-69
2023/10/07 11:50:35;;;;;;;0.20;0.20;;;19.00;80.00;;;;;;5011944;28;20080;-69
2023/10/07 11:53:07;;;;;;;0.00;0.00;;;18.90;80.30;;;;;;5022225;28;20387;-69
2023/10/07 11:55:33;;;;;;;0.00;0.00;;;19.00;80.90;;;;;;5020347;28;20049;-69
2023/10/07 11:57:59;;;;;;;0.25;0.25;;;19.00;80.80;;;;;;5025639;28;20141;-70
2023/10/07 12:00:29;;;;;;;0.30;0.30;;;19.00;80.20;;;;;;5027963;28;20052;-70
2023/10/07 12:02:58;;;;;;;0.00;0.00;;;19.00;80.20;;;;;;5024249;28;20056;-70
2023/10/07 12:05:27;;;;;;;0.40;0.35;;;19.00;80.60;;;;;;5024808;28;20048;-71
2023/10/07 12:08:01;;;;;;;0.00;0.00;;;18.90;81.00;;;;;;5026432;28;20053;-71
2023/10/07 12:10:36;;;;;;;0.03;0.03;;;18.90;80.80;;;;;;5026519;28;20693;-70
2023/10/07 12:13:03;;;;;;;0.00;0.00;;;18.90;80.30;;;;;;5025005;28;20041;-70
2023/10/07 12:15:29;;;;;;;0.30;0.30;;;18.90;80.10;;;;;;5026037;28;20934;-70
2023/10/07 12:17:55;;;;;;;0.00;0.00;;;18.80;80.30;;;;;;5025417;28;20060;-71
2023/10/07 12:20:22;;;;;;;1.63;1.38;;;18.80;80.60;;;;;;5024018;28;20045;-70
2023/10/07 12:22:48;;;;;;;0.35;0.35;;;18.80;80.90;;;;;;5025068;28;20057;-71
2023/10/07 12:25:16;;;;;;;0.20;0.20;;;18.80;81.10;;;;;;5025067;28;20080;-72
2023/10/07 12:27:51;;;;;;;0.00;0.00;;;18.80;80.90;;;;;;5007029;28;20091;-70
2023/10/07 12:30:23;;;;;;;0.08;0.08;;;18.70;80.80;;;;;;5026610;28;20045;-71
2023/10/07 12:32:52;;;;;;;0.00;0.00;;;18.80;80.70;;;;;;5023339;28;20046;-71
2023/10/07 12:35:19;;;;;;;0.05;0.05;;;18.80;80.60;;;;;;5028021;28;20053;-71
2023/10/07 12:37:48;;;;;;;0.00;0.00;;;18.80;80.90;;;;;;5025913;28;20073;-71
2023/10/07 12:40:16;;;;;;;0.00;0.00;;;18.80;81.30;;;;;;5026404;28;20061;-71
2023/10/07 12:42:43;;;;;;;0.00;0.00;;;18.70;80.60;;;;;;5022412;28;20438;-72
2023/10/07 12:45:10;;;;;;;0.17;0.17;;;18.80;81.00;;;;;;5026450;28;20124;-72
2023/10/07 12:47:39;;;;;;;0.00;0.00;;;18.80;81.30;;;;;;5025457;28;20045;-73
2023/10/07 12:50:20;;;;;;;0.30;0.30;;;18.80;81.20;;;;;;5009345;28;20133;-72
2023/10/07 12:52:57;;;;;;;0.30;0.20;;;18.80;81.40;;;;;;5022759;28;20540;-71
2023/10/07 12:55:29;;;;;;;0.00;0.00;;;18.70;81.20;;;;;;5025223;28;20564;-72
2023/10/07 12:57:55;;;;;;;0.30;0.30;;;18.70;81.90;;;;;;5022495;28;20154;-73
2023/10/07 13:00:28;;;;;;;0.52;0.52;;;18.60;82.00;;;;;;5026194;28;20415;-72
2023/10/07 13:02:54;;;;;;;0.15;0.15;;;18.60;82.20;;;;;;5025824;28;20060;-72
2023/10/07 13:05:24;;;;;;;0.00;0.00;;;18.60;82.10;;;;;;5024400;28;20053;-73
2023/10/07 13:07:54;;;;;;;0.00;0.00;;;18.50;82.30;;;;;;5024500;28;20767;-72
2023/10/07 13:10:20;;;;;;;0.00;0.00;;;18.50;82.70;;;;;;5024115;28;20045;-72
2023/10/07 13:12:49;;;;;;;0.00;0.00;;;18.50;82.90;;;;;;5024317;28;20095;-71
2023/10/07 13:15:15;;;;;;;0.43;0.43;;;18.40;83.10;;;;;;5008409;28;20483;-70
2023/10/07 13:17:46;;;;;;;0.00;0.00;;;18.40;83.00;;;;;;5026091;28;20044;-71
2023/10/07 13:20:23;;;;;;;0.00;0.00;;;18.40;82.70;;;;;;5025061;28;20452;-71
2023/10/07 13:22:55;;;;;;;0.00;0.00;;;18.30;83.30;;;;;;5025762;28;20061;-71
2023/10/07 13:25:21;;;;;;;0.22;0.22;;;18.30;83.30;;;;;;5025456;28;21222;-72
2023/10/07 13:27:52;;;;;;;1.00;0.75;;;18.30;83.30;;;;;;5025284;28;20128;-70
2023/10/07 13:30:18;;;;;;;0.00;0.00;;;18.20;82.80;;;;;;5026756;28;20049;-72
2023/10/07 13:32:44;;;;;;;0.10;0.10;;;18.20;83.40;;;;;;5026900;28;20050;-71
2023/10/07 13:35:19;;;;;;;0.00;0.00;;;18.20;83.40;;;;;;5027280;28;20041;-71
2023/10/07 13:37:46;;;;;;;0.10;0.10;;;18.30;83.50;;;;;;5025144;28;20469;-71
2023/10/07 13:40:16;;;;;;;0.32;0.32;;;18.20;84.10;;;;;;5024477;28;20110;-71
2023/10/07 13:43:00;;;;;;;0.00;0.00;;;18.20;83.90;;;;;;5029438;28;20045;-70
2023/10/07 13:45:31;;;;;;;0.10;0.10;;;18.10;84.10;;;;;;5032740;28;20460;-73
2023/10/07 13:47:57;;;;;;;0.03;0.03;;;18.10;84.20;;;;;;5028860;28;20061;-72
2023/10/07 13:50:25;;;;;;;0.00;0.00;;;18.10;84.20;;;;;;5024584;28;20296;-70
2023/10/07 13:57:57;;;;;;;0.00;0.00;;;18.00;84.60;;;;;;5029121;28;21051;-69
2023/10/07 14:00:28;;;;;;;0.20;0.20;;;18.00;84.50;;;;;;5029939;28;20053;-70
2023/10/07 14:02:57;;;;;;;0.00;0.00;;;17.90;84.80;;;;;;5013436;28;20132;-72
2023/10/07 14:05:24;;;;;;;0.00;0.00;;;17.90;84.70;;;;;;5026049;28;20041;-70